Latest Weather Observations for Cape Leeuwin

IDW60801

Issued at 4:41 pm WST Tuesday 3 March 2015 (issued every 30 minutes, with the page automatically refreshed every 10 minutes)

About weather observations | Map of weather stations | Latest weather observations for WA | Other Formats
Station Details ID: 009518 Name: CAPE LEEUWIN Lat: -34.37 Lon: 115.14 Height: 13.0 m
Data from the previous 72 hours. | See also: Recent months at Cape Leeuwin
Date/Time
WST
Temp
°C
App
Temp
°C
Dew
Point
Rel
Hum
%
Delta-T
°C
Wind Press
QNH
hPa
Press
MSL
hPa
Rain
since 9 am
mm
Dir
 
Spd
km/h
Gust
km/h
Spd
kts
Gust
kts
03/04:30pm 20.1 14.2 12.4 61 4.3 SE 35 46 19 25 1022.6 1022.6 0.0
03/04:00pm 20.3 13.9 12.0 59 4.6 SSE 37 46 20 25 1022.5 1022.5 0.0
03/03:30pm 21.1 14.9 12.8 59 4.7 SE 37 44 20 24 1022.5 1022.5 0.0
03/03:00pm 21.4 15.2 12.7 57 4.9 SE 37 46 20 25 1022.6 1022.6 0.0
03/02:30pm 21.1 14.9 12.6 58 4.8 SSE 37 46 20 25 1022.7 1022.7 0.0
03/02:00pm 21.1 15.1 12.2 56 5.0 SSE 35 44 19 24 1023.0 1023.0 0.0
03/01:30pm 21.5 16.0 12.0 54 5.3 SSE 32 41 17 22 1023.1 1023.1 0.0
03/01:00pm 21.3 15.6 11.8 54 5.3 SSE 33 43 18 23 1023.3 1023.3 0.0
03/12:30pm 21.5 16.0 12.0 54 5.3 SSE 32 41 17 22 1023.6 1023.6 0.0
03/12:00pm 21.7 16.6 11.8 53 5.5 SE 30 39 16 21 1023.9 1023.9 0.0
03/11:30am 20.8 15.9 11.3 54 5.2 SE 28 35 15 19 1024.1 1024.1 0.0
03/11:00am 20.0 14.9 10.6 54 5.1 SE 28 39 15 21 1024.3 1024.3 0.0
03/10:30am 19.6 14.4 10.3 55 5.0 SE 28 39 15 21 1024.3 1024.3 0.0
03/10:00am 19.8 14.3 10.7 55 4.9 ESE 30 37 16 20 1024.4 1024.4 0.0
03/09:30am 19.9 14.9 11.1 57 4.8 E 28 37 15 20 1024.4 1024.4 0.0
03/09:00am 18.5 13.9 11.1 62 4.0 E 26 32 14 17 1024.2 1024.2 0.0
03/08:30am 18.0 12.2 10.9 63 3.8 E 32 37 17 20 1024.2 1024.2 0.0
03/08:00am 17.4 12.1 11.1 66 3.4 E 30 37 16 20 1024.2 1024.2 0.0
03/07:30am 17.2 11.8 10.8 66 3.4 E 30 35 16 19 1024.2 1024.2 0.0
03/07:00am 16.8 11.0 10.8 67 3.2 E 32 35 17 19 1024.1 1024.1 0.0
03/06:30am 16.4 10.7 11.0 70 2.9 E 32 37 17 20 1023.7 1023.7 0.0
03/06:00am 16.2 10.7 10.5 69 3.0 E 30 35 16 19 1023.5 1023.5 0.0
03/05:30am 16.2 10.8 10.9 71 2.8 ENE 30 35 16 19 1023.4 1023.4 0.0
03/05:00am 16.6 10.7 11.0 69 3.0 E 33 39 18 21 1023.1 1023.1 0.0
03/04:30am 16.5 10.8 11.1 70 2.9 E 32 37 17 20 1022.9 1022.9 0.0
03/04:00am 16.6 10.9 11.2 70 2.9 E 32 35 17 19 1022.5 1022.5 0.0
03/03:30am 16.5 10.8 11.1 70 2.9 E 32 35 17 19 1022.4 1022.4 0.0
03/03:00am 17.1 12.0 12.0 72 2.8 E 30 37 16 20 1022.5 1022.5 0.0
03/02:30am 17.1 11.5 11.6 70 3.0 E 32 37 17 20 1022.5 1022.5 0.0
03/02:00am 17.3 11.7 11.4 68 3.2 E 32 37 17 20 1022.5 1022.5 0.0
03/01:30am 17.3 11.6 11.8 70 3.0 E 33 39 18 21 1022.6 1022.6 0.0
03/01:00am 17.4 11.7 11.7 69 3.1 E 33 41 18 22 1022.6 1022.6 0.0
03/12:30am 17.8 11.3 11.8 68 3.3 ESE 37 43 20 23 1022.6 1022.6 0.0
03/12:00am 17.7 12.0 11.8 68 3.2 E 33 43 18 23 1022.4 1022.4 0.0
 
Date/Time
WST
Temp
°C
App
Temp
°C
Dew
Point
Rel
Hum
%
Delta-T
°C
Wind Press
QNH
hPa
Press
MSL
hPa
Rain
since 9 am
mm
Dir
 
Spd
km/h
Gust
km/h
Spd
kts
Gust
kts
02/11:30pm 18.3 11.5 12.1 67 3.4 ESE 39 46 21 25 1022.6 1022.6 0.0
02/11:00pm 18.1 11.7 12.1 68 3.3 ESE 37 44 20 24 1022.6 1022.6 0.0
02/10:30pm 18.4 12.3 11.8 65 3.6 ESE 35 46 19 25 1022.7 1022.7 0.0
02/10:00pm 18.5 11.9 11.5 63 3.8 SE 37 44 20 24 1022.7 1022.7 0.0
02/09:30pm 18.7 11.6 12.2 66 3.6 ESE 41 50 22 27 1022.5 1022.5 0.0
02/09:00pm 18.4 11.0 11.2 63 3.9 ESE 41 50 22 27 1022.2 1022.2 0.0
02/08:30pm 18.4 11.0 11.2 63 3.9 ESE 41 52 22 28 1021.7 1021.7 0.0
02/08:00pm 18.4 11.1 11.4 63 3.8 SE 41 54 22 29 1021.3 1021.3 0.0
02/07:30pm 18.3 10.5 11.3 63 3.8 ESE 43 54 23 29 1020.9 1020.9 0.0
02/07:00pm 18.4 11.0 11.2 63 3.9 SE 41 54 22 29 1020.5 1020.5 0.0
02/06:30pm 18.5 10.7 11.1 62 4.0 SE 43 54 23 29 1020.2 1020.2 0.0
02/06:00pm 18.6 10.9 11.5 63 3.9 SE 43 54 23 29 1020.1 1020.1 0.0
02/05:30pm 18.8 11.5 11.7 63 3.9 SE 41 56 22 30 1019.9 1019.9 0.0
02/05:00pm 19.4 14.6 19.2 99 0.1 SE 43 57 23 31 1019.8 1019.8 0.0
02/04:30pm 19.3 14.4 19.1 99 0.1 SE 43 54 23 29 1019.7 1019.7 0.0
02/04:00pm 19.7 15.1 19.7 100 0.0 SE 43 56 23 30 1019.7 1019.7 0.0
02/03:30pm 19.8 15.1 19.8 100 0.0 SE 44 56 24 30 1019.7 1019.7 0.0
02/03:00pm 20.0 15.4 20.0 100 0.0 SE 44 56 24 30 1019.6 1019.6 0.0
02/02:30pm 20.4 16.1 20.4 100 0.0 SE 43 54 23 29 1019.7 1019.7 0.0
02/02:00pm 20.5 16.1 20.5 100 0.0 SE 44 57 24 31 1019.6 1019.6 0.0
02/01:30pm 21.0 16.9 20.7 98 0.2 SE 43 56 23 30 1019.5 1019.5 0.0
02/01:00pm 21.1 16.6 21.1 100 0.0 SE 46 57 25 31 1019.6 1019.6 0.0
02/12:30pm 21.1 14.7 15.4 70 3.4 SE 43 56 23 30 1019.5 1019.5 0.0
02/12:00pm 20.8 12.2 11.8 56 5.0 SE 48 59 26 32 1019.7 1019.7 0.0
02/11:30am 19.9 11.0 11.8 59 4.5 SE 50 61 27 33 1020.0 1020.0 0.0
02/11:00am 18.8 10.0 12.1 65 3.7 SE 50 59 27 32 1020.1 1020.1 0.0
02/10:30am 18.2 10.4 13.0 71 2.9 SE 46 61 25 33 1020.3 1020.3 0.0
02/10:00am 18.4 12.5 14.6 78 2.2 SE 39 54 21 29 1020.3 1020.3 0.0
02/09:30am 18.7 11.5 13.2 70 3.1 SE 43 57 23 31 1019.8 1019.8 0.0
02/09:00am 19.3 12.4 12.9 66 3.6 SE 41 50 22 27 1019.5 1019.5 0.0
02/08:30am 19.0 12.4 13.7 71 3.0 SE 41 52 22 28 1019.2 1019.2 0.0
02/08:00am 19.4 12.2 13.2 67 3.5 SE 43 54 23 29 1019.0 1019.0 0.0
02/07:30am 19.0 12.0 12.6 66 3.6 SE 41 50 22 27 1018.7 1018.7 0.0
02/07:00am 19.0 11.3 12.1 64 3.8 SE 44 54 24 29 1018.6 1018.5 0.0
02/06:30am 18.6 12.0 12.7 68 3.3 SE 39 50 21 27 1018.3 1018.2 0.0
02/06:00am 18.3 11.0 11.7 65 3.6 SE 41 48 22 26 1018.0 1017.9 0.0
02/05:30am 18.4 10.7 11.4 63 3.8 ESE 43 52 23 28 1017.8 1017.7 0.0
02/05:00am 18.5 12.6 12.4 67 3.4 SE 35 48 19 26 1017.5 1017.4 0.0
02/04:30am 18.5 11.0 10.9 61 4.1 SE 41 50 22 27 1017.2 1017.1 0.0
02/04:00am 18.5 11.3 11.8 65 3.7 SE 41 52 22 28 1016.9 1016.8 0.0
02/03:30am 18.5 11.5 11.3 63 3.9 SE 39 50 21 27 1016.7 1016.6 0.0
02/03:00am 18.4 11.3 10.8 61 4.1 SE 39 52 21 28 1016.7 1016.6 0.0
02/02:30am 18.6 11.8 12.1 66 3.6 ESE 39 50 21 27 1017.0 1016.9 0.0
02/02:00am 18.5 11.5 11.3 63 3.9 SE 39 46 21 25 1017.0 1016.9 0.0
02/01:30am 18.5 12.1 12.0 66 3.6 SE 37 46 20 25 1017.0 1016.9 0.0
02/01:00am 18.2 10.6 10.5 60 4.1 SE 41 54 22 29 1017.2 1017.1 0.0
02/12:30am 18.3 10.5 9.6 57 4.6 SE 41 50 22 27 1017.3 1017.2 0.0
02/12:00am 18.4 10.8 10.6 60 4.2 SE 41 50 22 27 1017.3 1017.2 0.0
 
Date/Time
WST
Temp
°C
App
Temp
°C
Dew
Point
Rel
Hum
%
Delta-T
°C
Wind Press
QNH
hPa
Press
MSL
hPa
Rain
since 9 am
mm
Dir
 
Spd
km/h
Gust
km/h
Spd
kts
Gust
kts
01/11:30pm 18.4 11.6 10.6 60 4.2 SE 37 48 20 26 1017.4 1017.3 0.0
01/11:00pm 18.4 10.9 10.8 61 4.1 SE 41 54 22 29 1017.2 1017.1 0.0
01/10:30pm 18.3 10.8 10.7 61 4.1 SE 41 54 22 29 1017.2 1017.1 0.0
01/10:00pm 18.4 11.5 11.6 64 3.7 SE 39 50 21 27 1017.2 1017.1 0.0
01/09:30pm 18.2 10.4 11.0 63 3.9 SE 43 52 23 28 1017.0 1016.9 0.0
01/09:00pm 18.3 10.4 10.7 61 4.1 SE 43 54 23 29 1016.8 1016.7 0.0
01/08:30pm 18.3 10.5 11.1 63 3.9 SE 43 54 23 29 1016.5 1016.4 0.0
01/08:00pm 18.3 10.9 11.3 63 3.8 SE 41 52 22 28 1015.9 1015.8 0.0
01/07:30pm 18.2 10.2 11.0 63 3.9 SE 44 54 24 29 1015.7 1015.6 0.0
01/07:00pm 18.4 10.3 11.9 66 3.6 SE 46 54 25 29 1015.3 1015.2 0.0
01/06:30pm 18.6 10.7 12.7 68 3.3 SE 46 56 25 30 1015.0 1014.9 0.0
01/06:00pm 18.4 9.9 12.1 66 3.5 SSE 48 59 26 32 1014.8 1014.7 0.0
01/05:30pm 18.5 10.1 12.4 67 3.4 SSE 48 59 26 32 1014.7 1014.6 0.0
01/05:00pm 18.9 11.0 12.7 67 3.5 SE 46 57 25 31 1014.5 1014.4 0.0
01/04:30pm 19.1 11.1 12.3 64 3.8 SE 46 57 25 31 1014.3 1014.2 0.0
01/04:00pm 19.1 10.8 12.5 65 3.7 SSE 48 61 26 33 1014.0 1013.9 0.0
01/03:30pm 19.4 11.4 12.4 64 3.9 SSE 46 61 25 33 1013.9 1013.8 0.0
01/03:00pm 19.7 12.3 13.2 66 3.7 SSE 44 56 24 30 1014.1 1014.0 0.0
01/02:30pm 20.4 12.7 13.4 64 4.0 SSE 46 56 25 30 1014.0 1013.9 0.0
01/02:00pm 20.3 13.1 13.7 66 3.8 SSE 44 56 24 30 1014.1 1014.0 0.0
01/01:30pm 21.2 14.6 13.8 62 4.3 SSE 41 50 22 27 1014.0 1013.9 0.0
01/01:00pm 21.5 14.8 13.3 59 4.7 SE 41 50 22 27 1014.2 1014.1 0.0
01/12:30pm 21.3 15.1 13.7 62 4.4 SSE 39 48 21 26 1014.2 1014.1 0.0
01/12:00pm 21.4 14.2 13.0 58 4.8 SE 43 52 23 28 1014.2 1014.1 0.0
01/11:30am 21.1 13.7 12.4 57 4.9 SE 43 50 23 27 1014.5 1014.4 0.0
01/11:00am 21.6 14.9 12.4 55 5.2 SE 39 48 21 26 1015.0 1014.9 0.0
01/10:30am 20.4 14.3 11.8 57 4.8 SE 35 46 19 25 1015.2 1015.1 0.0
01/10:00am 20.1 14.0 11.6 58 4.7 SE 35 46 19 25 1015.3 1015.2 0.0
01/09:30am 19.3 13.0 12.3 64 3.9 ESE 37 44 20 24 1015.5 1015.4 0.0
01/09:00am 19.3 12.4 11.7 61 4.2 ESE 39 46 21 25 1015.5 1015.4 0.0
01/08:30am 19.0 11.1 12.8 67 3.5 ESE 46 54 25 29 1015.6 1015.5 0.0
01/08:00am 18.5 10.6 12.6 68 3.3 ESE 46 54 25 29 1015.7 1015.6 0.0
01/07:30am 18.3 10.1 11.7 65 3.6 ESE 46 54 25 29 1015.7 1015.6 0.0
01/07:00am 17.9 9.8 11.9 68 3.3 ESE 46 54 25 29 1015.9 1015.8 0.0
01/06:30am 17.5 9.8 12.0 70 3.0 ESE 44 50 24 27 1016.0 1015.9 0.0
01/06:00am 17.1 9.9 11.8 71 2.9 ESE 41 46 22 25 1016.1 1016.0 0.0
01/05:30am 17.0 10.1 11.5 70 3.0 ESE 39 48 21 26 1015.9 1015.8 0.0
01/05:00am 17.0 9.2 11.9 72 2.8 ESE 44 52 24 28 1015.7 1015.6 0.0
01/04:30am 17.1 9.1 11.0 67 3.3 ESE 44 52 24 28 1015.6 1015.5 0.0
01/04:00am 17.4 8.6 10.9 65 3.5 ESE 48 57 26 31 1015.8 1015.7 0.0
01/03:30am 17.3 9.2 10.8 65 3.5 ESE 44 54 24 29 1015.7 1015.6 0.0
01/03:00am 17.1 8.8 10.1 63 3.7 ESE 44 52 24 28 1015.7 1015.6 0.0
01/02:30am 16.8 8.7 10.2 65 3.5 ESE 43 54 23 29 1015.8 1015.7 0.0
01/02:00am 16.7 8.5 9.8 63 3.6 ESE 43 52 23 28 1015.6 1015.5 0.0
01/01:30am 16.8 9.3 11.0 68 3.1 ESE 41 50 22 27 1015.8 1015.7 0.0
01/01:00am 16.9 9.3 10.5 66 3.4 ESE 41 50 22 27 1016.0 1015.9 0.0
01/12:30am 17.0 9.5 10.8 67 3.3 ESE 41 50 22 27 1016.0 1015.9 0.0
01/12:00am 17.2 9.5 11.5 69 3.1 ESE 43 50 23 27 1016.1 1016.0 0.0
 
Date/Time
WST
Temp
°C
App
Temp
°C
Dew
Point
Rel
Hum
%
Delta-T
°C
Wind Press
QNH
hPa
Press
MSL
hPa
Rain
since 9 am
mm
Dir
 
Spd
km/h
Gust
km/h
Spd
kts
Gust
kts
28/11:30pm 17.0 9.2 11.0 68 3.2 ESE 43 52 23 28 1016.3 1016.2 0.0
28/11:00pm 17.3 9.6 11.6 69 3.1 ESE 43 50 23 27 1016.3 1016.2 0.0
28/10:30pm 17.6 9.9 12.2 70 3.0 ESE 44 56 24 30 1016.6 1016.5 0.0
28/10:00pm 18.0 10.2 13.0 72 2.8 ESE 46 57 25 31 1016.7 1016.6 0.0
28/09:30pm 18.1 10.8 12.9 71 2.9 SE 43 56 23 30 1017.0 1016.9 0.0
28/09:00pm 18.2 10.4 13.0 71 2.9 SE 46 59 25 32 1017.0 1016.9 0.0
28/08:30pm 18.3 11.1 13.1 71 2.9 SE 43 57 23 31 1016.9 1016.8 0.0
28/08:00pm 18.1 10.6 12.7 70 3.0 SE 44 56 24 30 1016.8 1016.7 0.0
28/07:30pm 18.2 10.8 12.6 70 3.1 SE 43 54 23 29 1016.6 1016.5 0.0
28/07:00pm 18.3 11.0 12.8 70 3.1 SE 43 54 23 29 1016.6 1016.5 0.0
28/06:30pm 18.5 11.0 12.2 66 3.5 SE 43 54 23 29 1016.4 1016.3 0.0
28/06:00pm 19.1 12.8 12.3 64 3.8 SE 37 50 20 27 1016.6 1016.5 0.0
28/05:30pm 19.2 11.5 11.6 61 4.2 SE 43 52 23 28 1016.6 1016.5 0.0
28/05:00pm 19.9 13.2 12.2 61 4.3 SE 39 50 21 27 1016.7 1016.6 0.0

Other Formats:

Comma delimited format used in spreadsheet applications
http://www.bom.gov.au/fwo/IDW60801/IDW60801.94601.axf

JavaScript Object Notation format (JSON) in row-major order
http://www.bom.gov.au/fwo/IDW60801/IDW60801.94601.json